Time;durP1;ratioP1;P1;durP2;ratioP2;P2;SDS_P1;SDS_P2;PMS_P1;PMS_P2;Temp;Humidity;BMP_temperature;BMP_pressure;BME280_temperature;BME280_humidity;BME280_pressure;Samples;Min_cycle;Max_cycle;Signal;HPM_P1;HPM_P2
2023/08/23 00:01:59;;;;;;;5.53;3.45;;;18.60;97.30;;;;;;4942549;28;20551;-82
2023/08/23 00:04:26;;;;;;;6.90;2.90;;;18.50;97.40;;;;;;4940446;28;20036;-86
2023/08/23 00:06:52;;;;;;;5.07;3.22;;;18.50;97.50;;;;;;4944539;28;20031;-86
2023/08/23 00:09:17;;;;;;;6.43;3.35;;;18.50;97.80;;;;;;4953610;28;20065;-86
2023/08/23 00:11:44;;;;;;;5.60;3.03;;;18.40;97.70;;;;;;4944022;28;20035;-87
2023/08/23 00:14:09;;;;;;;6.88;3.28;;;18.40;97.60;;;;;;4944631;28;20102;-86
2023/08/23 00:16:37;;;;;;;8.60;3.35;;;18.40;97.80;;;;;;4943936;28;20023;-86
2023/08/23 00:19:03;;;;;;;6.93;3.45;;;18.40;98.10;;;;;;4953772;28;20050;-86
2023/08/23 00:21:28;;;;;;;7.82;3.80;;;18.30;98.10;;;;;;4944578;29;20448;-85
2023/08/23 00:23:55;;;;;;;7.45;4.03;;;18.30;97.90;;;;;;4944610;28;20019;-86
2023/08/23 00:26:20;;;;;;;6.05;3.95;;;18.20;98.20;;;;;;4946598;28;20019;-85
2023/08/23 00:28:46;;;;;;;9.70;4.10;;;18.20;98.60;;;;;;4943968;28;20203;-86
2023/08/23 00:31:14;;;;;;;6.30;3.70;;;18.10;98.60;;;;;;4960637;28;20026;-86
2023/08/23 00:33:40;;;;;;;6.78;2.85;;;18.20;98.10;;;;;;4938531;28;20082;-86
2023/08/23 00:36:06;;;;;;;4.40;3.17;;;18.10;98.50;;;;;;4944825;28;20122;-86
2023/08/23 00:38:34;;;;;;;5.72;3.75;;;18.00;98.50;;;;;;4944518;28;20118;-86
2023/08/23 00:41:02;;;;;;;4.93;3.33;;;18.00;98.70;;;;;;4943738;28;20964;-85
2023/08/23 00:43:27;;;;;;;7.03;3.15;;;17.90;98.70;;;;;;4945574;28;20110;-85
2023/08/23 00:45:53;;;;;;;3.38;3.08;;;17.90;98.90;;;;;;4944853;28;20495;-87
2023/08/23 00:48:21;;;;;;;5.10;3.03;;;17.80;98.60;;;;;;4945012;28;20031;-85
2023/08/23 00:50:47;;;;;;;5.35;3.22;;;17.70;98.70;;;;;;4944814;28;20023;-85
2023/08/23 00:53:14;;;;;;;4.15;3.15;;;17.70;99.00;;;;;;4946874;29;20035;-85
2023/08/23 00:55:40;;;;;;;9.98;3.15;;;17.60;99.00;;;;;;4946675;28;20031;-86
2023/08/23 00:58:09;;;;;;;9.10;3.05;;;17.60;99.00;;;;;;4944981;28;20038;-86
2023/08/23 01:00:36;;;;;;;5.90;3.30;;;17.60;99.60;;;;;;4949393;28;20385;-86
2023/08/23 01:03:02;;;;;;;5.28;3.33;;;17.60;99.60;;;;;;4947999;28;20020;-86
2023/08/23 01:05:37;;;;;;;7.95;3.70;;;17.50;99.70;;;;;;4949978;28;20127;-86
2023/08/23 01:08:12;;;;;;;8.23;3.30;;;17.50;99.70;;;;;;4945882;28;20031;-86
2023/08/23 01:11:05;;;;;;;4.97;3.10;;;17.50;99.50;;;;;;4942402;28;20218;-87
2023/08/23 01:13:58;;;;;;;5.50;3.97;;;17.50;99.30;;;;;;4943864;28;20034;-86
2023/08/23 01:16:25;;;;;;;8.33;4.00;;;17.40;99.90;;;;;;4945407;28;20031;-86
2023/08/23 01:18:54;;;;;;;3.90;2.90;;;17.50;99.70;;;;;;4948121;28;20050;-85
2023/08/23 01:21:27;;;;;;;6.32;2.58;;;17.30;99.90;;;;;;4945618;28;20066;-85
2023/08/23 01:23:56;;;;;;;7.78;2.88;;;17.20;99.90;;;;;;4948457;28;20031;-85
2023/08/23 01:26:21;;;;;;;8.00;3.15;;;17.20;99.90;;;;;;4941285;28;20031;-85
2023/08/23 01:28:50;;;;;;;3.92;3.45;;;17.20;99.90;;;;;;4940918;28;20028;-86
2023/08/23 01:31:18;;;;;;;5.15;3.38;;;17.10;99.90;;;;;;4945962;28;20145;-85
2023/08/23 01:33:56;;;;;;;9.80;2.75;;;17.20;99.90;;;;;;4947664;28;21337;-86
2023/08/23 01:36:28;;;;;;;4.88;3.38;;;17.20;99.90;;;;;;4947125;28;20023;-85
2023/08/23 01:38:56;;;;;;;3.78;2.97;;;17.20;99.90;;;;;;4953614;28;20056;-85
2023/08/23 01:41:23;;;;;;;5.70;3.30;;;17.30;99.80;;;;;;4947333;28;20677;-85
2023/08/23 01:43:49;;;;;;;7.38;3.10;;;17.30;99.90;;;;;;4947043;28;20102;-85
2023/08/23 01:46:15;;;;;;;4.20;3.50;;;17.30;99.90;;;;;;4946019;28;20083;-85
2023/08/23 01:48:40;;;;;;;7.05;3.10;;;17.30;99.90;;;;;;4948553;28;20031;-85
2023/08/23 01:51:06;;;;;;;6.75;3.08;;;17.40;99.60;;;;;;4947919;28;20031;-85
2023/08/23 01:53:32;;;;;;;4.25;2.97;;;17.40;99.90;;;;;;4948868;28;20102;-85
2023/08/23 01:55:59;;;;;;;8.00;3.15;;;17.40;99.90;;;;;;4945756;28;20189;-86
2023/08/23 01:58:25;;;;;;;6.00;3.13;;;17.40;99.80;;;;;;4946750;28;20121;-85
2023/08/23 02:00:52;;;;;;;4.85;2.80;;;17.50;99.80;;;;;;4948403;28;20107;-85
2023/08/23 02:03:18;;;;;;;3.47;2.67;;;17.50;99.50;;;;;;4954306;28;20047;-85
2023/08/23 02:05:44;;;;;;;9.07;3.13;;;17.50;99.50;;;;;;4964082;28;20031;-84
2023/08/23 02:08:10;;;;;;;5.15;2.88;;;17.50;99.50;;;;;;4947102;28;20696;-85
2023/08/23 02:10:35;;;;;;;4.18;2.65;;;17.40;99.60;;;;;;4947260;28;20027;-85
2023/08/23 02:13:04;;;;;;;3.10;2.65;;;17.50;99.60;;;;;;4939173;28;20054;-88
2023/08/23 02:15:30;;;;;;;3.58;2.78;;;17.40;99.20;;;;;;4946901;28;20134;-85
2023/08/23 02:17:55;;;;;;;7.22;2.97;;;17.40;99.50;;;;;;4947474;28;20035;-85
2023/08/23 02:20:21;;;;;;;2.95;2.38;;;17.40;99.50;;;;;;4945477;28;20042;-85
2023/08/23 02:22:47;;;;;;;3.67;2.90;;;17.30;99.70;;;;;;4948259;28;20475;-85
2023/08/23 02:25:12;;;;;;;5.68;3.03;;;17.30;99.80;;;;;;4945285;28;20110;-83
2023/08/23 02:27:40;;;;;;;5.22;2.88;;;17.30;99.70;;;;;;4933075;28;20042;-85
2023/08/23 02:30:06;;;;;;;3.35;3.05;;;17.30;99.90;;;;;;4942441;28;20118;-86
2023/08/23 02:32:33;;;;;;;3.50;2.80;;;17.20;99.80;;;;;;4945788;28;20126;-87
2023/08/23 02:34:59;;;;;;;7.80;2.80;;;17.20;99.80;;;;;;4956019;28;20115;-85
2023/08/23 02:37:24;;;;;;;2.78;2.53;;;17.20;99.90;;;;;;4944047;28;20097;-83
2023/08/23 02:39:50;;;;;;;7.15;3.28;;;17.20;99.90;;;;;;4945774;28;20130;-86
2023/08/23 02:42:15;;;;;;;5.60;2.88;;;17.20;99.90;;;;;;4946527;28;20424;-85
2023/08/23 02:44:43;;;;;;;5.80;2.95;;;17.20;99.80;;;;;;4945283;28;20407;-84
2023/08/23 02:47:09;;;;;;;10.35;2.90;;;17.20;99.90;;;;;;4942847;28;20071;-85
2023/08/23 02:49:37;;;;;;;6.38;3.15;;;17.20;99.90;;;;;;4944914;28;20059;-85
2023/08/23 02:52:03;;;;;;;9.20;2.85;;;17.20;99.90;;;;;;4943972;28;20035;-86
2023/08/23 02:54:29;;;;;;;8.80;3.20;;;17.20;99.90;;;;;;4944065;28;20617;-86
2023/08/23 02:56:57;;;;;;;3.22;2.22;;;17.20;99.90;;;;;;4945844;28;20090;-85
2023/08/23 02:59:23;;;;;;;6.35;2.78;;;17.10;99.90;;;;;;4944698;28;20019;-85
2023/08/23 03:01:48;;;;;;;4.95;2.72;;;17.10;99.90;;;;;;4947206;28;20035;-85
2023/08/23 03:04:14;;;;;;;5.65;2.95;;;17.00;99.90;;;;;;4945710;28;20031;-85
2023/08/23 03:06:39;;;;;;;5.60;2.75;;;16.90;99.90;;;;;;4945520;28;20083;-85
2023/08/23 03:09:05;;;;;;;3.13;2.60;;;16.90;99.90;;;;;;4951069;29;20062;-85
2023/08/23 03:11:31;;;;;;;8.00;3.40;;;16.80;99.90;;;;;;4960066;28;20098;-84
2023/08/23 03:13:57;;;;;;;7.00;2.70;;;16.80;99.90;;;;;;4971558;28;20019;-85
2023/08/23 03:16:22;;;;;;;4.88;2.70;;;16.80;99.90;;;;;;4969006;28;20042;-83
2023/08/23 03:18:48;;;;;;;6.50;2.75;;;16.80;99.90;;;;;;4944282;28;20488;-85
2023/08/23 03:21:13;;;;;;;7.78;3.22;;;16.80;99.90;;;;;;4943710;28;20088;-84
2023/08/23 03:23:39;;;;;;;6.90;3.20;;;16.80;99.90;;;;;;4943817;28;20031;-85
2023/08/23 03:26:05;;;;;;;5.70;2.88;;;16.80;99.90;;;;;;4946479;28;20111;-85
2023/08/23 03:28:30;;;;;;;4.75;3.00;;;16.90;99.90;;;;;;4944533;28;20036;-87
2023/08/23 03:31:04;;;;;;;5.95;2.70;;;16.80;99.90;;;;;;4946391;28;20055;-85
2023/08/23 03:33:30;;;;;;;6.32;2.70;;;16.70;99.90;;;;;;4951908;28;21668;-85
2023/08/23 03:35:56;;;;;;;6.40;3.30;;;16.60;99.90;;;;;;4944722;28;20051;-87
2023/08/23 03:38:22;;;;;;;3.88;2.92;;;16.70;99.90;;;;;;4945326;28;20493;-85
2023/08/23 03:40:49;;;;;;;6.90;3.70;;;16.60;99.90;;;;;;4941404;28;20027;-87
2023/08/23 03:43:15;;;;;;;4.93;2.90;;;16.70;99.90;;;;;;4944072;28;21469;-86
2023/08/23 03:45:48;;;;;;;6.03;3.25;;;16.60;99.90;;;;;;4940586;28;20142;-85
2023/08/23 03:48:14;;;;;;;8.40;3.60;;;16.60;99.90;;;;;;4939453;28;20035;-85
2023/08/23 03:50:40;;;;;;;5.20;3.75;;;16.60;99.90;;;;;;4943193;28;20027;-85
2023/08/23 03:53:06;;;;;;;3.95;3.55;;;16.60;99.90;;;;;;4957955;28;20034;-85
2023/08/23 03:55:31;;;;;;;4.63;3.70;;;16.60;99.90;;;;;;4942917;28;20077;-86
2023/08/23 03:57:57;;;;;;;7.10;4.07;;;16.60;99.90;;;;;;4935991;28;20027;-85
2023/08/23 04:00:23;;;;;;;8.30;4.38;;;16.70;99.90;;;;;;4942114;28;20030;-85
2023/08/23 04:02:48;;;;;;;6.25;4.10;;;16.70;99.90;;;;;;4945714;28;20015;-85
2023/08/23 04:05:14;;;;;;;7.20;4.30;;;16.70;99.90;;;;;;4941763;28;20490;-85
2023/08/23 04:07:42;;;;;;;9.10;4.00;;;16.70;99.90;;;;;;4944457;28;20477;-85
2023/08/23 04:10:09;;;;;;;6.00;4.05;;;16.70;99.90;;;;;;4941296;28;20027;-85
2023/08/23 04:12:34;;;;;;;7.38;3.85;;;16.70;99.90;;;;;;4944371;28;20083;-84
2023/08/23 04:15:02;;;;;;;9.05;4.10;;;16.80;99.90;;;;;;4942822;28;20841;-85
2023/08/23 04:17:28;;;;;;;7.25;3.92;;;16.70;99.90;;;;;;4953802;28;20031;-86
2023/08/23 04:19:53;;;;;;;7.45;4.20;;;16.70;99.90;;;;;;4950748;28;20838;-84
2023/08/23 04:22:19;;;;;;;6.30;4.03;;;16.80;99.90;;;;;;4946231;28;20099;-84
2023/08/23 04:24:45;;;;;;;11.63;3.65;;;16.80;99.90;;;;;;4946774;28;20286;-85
2023/08/23 04:27:10;;;;;;;8.27;4.00;;;16.80;99.90;;;;;;4941687;28;20487;-84
2023/08/23 04:29:36;;;;;;;5.07;4.45;;;16.90;99.90;;;;;;4945493;28;20035;-85
2023/08/23 04:32:09;;;;;;;7.03;4.43;;;16.90;99.90;;;;;;4945160;28;20889;-85
2023/08/23 04:34:34;;;;;;;7.55;4.30;;;16.90;99.90;;;;;;4945377;28;20139;-85
2023/08/23 04:37:00;;;;;;;6.70;4.25;;;16.80;99.90;;;;;;4942683;28;20114;-86
2023/08/23 04:39:25;;;;;;;5.35;3.83;;;16.70;99.90;;;;;;4943323;28;20039;-85
2023/08/23 04:41:51;;;;;;;8.25;4.32;;;16.70;99.90;;;;;;4945608;28;20027;-85
2023/08/23 04:44:19;;;;;;;6.22;4.15;;;16.60;99.90;;;;;;4942581;28;20174;-85
2023/08/23 04:46:45;;;;;;;10.75;4.65;;;16.60;99.90;;;;;;4944755;28;20019;-85
2023/08/23 04:49:10;;;;;;;7.18;3.83;;;16.50;99.90;;;;;;4939433;28;20039;-86
2023/08/23 04:51:38;;;;;;;6.80;4.13;;;16.60;99.90;;;;;;4947200;28;20030;-85
2023/08/23 04:54:04;;;;;;;11.13;3.67;;;16.60;99.90;;;;;;4946074;28;20027;-85
2023/08/23 04:56:29;;;;;;;7.45;4.22;;;16.70;99.90;;;;;;4945485;28;20039;-85
2023/08/23 04:58:55;;;;;;;8.88;4.35;;;16.70;99.90;;;;;;4943337;28;20016;-86
2023/08/23 05:01:23;;;;;;;6.72;3.95;;;16.70;99.90;;;;;;4944631;28;20031;-85
2023/08/23 05:03:51;;;;;;;10.23;3.95;;;16.80;99.90;;;;;;4961718;28;20019;-85
2023/08/23 05:06:17;;;;;;;12.18;4.53;;;16.80;99.90;;;;;;4940915;28;20127;-85
2023/08/23 05:08:43;;;;;;;5.72;4.80;;;16.80;99.90;;;;;;4947764;28;20109;-86
2023/08/23 05:11:09;;;;;;;9.73;4.05;;;16.90;99.90;;;;;;4948073;28;20030;-85
2023/08/23 05:13:34;;;;;;;9.80;3.70;;;16.90;99.90;;;;;;4945570;28;20020;-86
2023/08/23 05:16:03;;;;;;;10.10;3.60;;;16.90;99.90;;;;;;4951258;28;20023;-85
2023/08/23 05:18:28;;;;;;;11.55;4.45;;;17.00;99.90;;;;;;4947611;28;20030;-85
2023/08/23 05:20:59;;;;;;;11.45;5.22;;;17.00;99.90;;;;;;4949445;28;20016;-85
2023/08/23 05:23:25;;;;;;;7.35;5.28;;;17.10;99.90;;;;;;4953891;28;20023;-85
2023/08/23 05:25:55;;;;;;;7.18;4.38;;;17.20;99.90;;;;;;4945902;28;20179;-85
2023/08/23 05:28:21;;;;;;;6.95;4.93;;;17.20;99.90;;;;;;4947073;28;20137;-85
2023/08/23 05:30:49;;;;;;;14.45;5.63;;;17.30;99.90;;;;;;4947174;28;21028;-85
2023/08/23 05:33:15;;;;;;;8.85;5.00;;;17.30;99.90;;;;;;4948079;28;20034;-85
2023/08/23 05:35:41;;;;;;;9.20;5.03;;;17.40;99.90;;;;;;4945911;28;20200;-85
2023/08/23 05:38:09;;;;;;;10.07;5.60;;;17.40;99.90;;;;;;4960325;28;20102;-85
2023/08/23 05:40:34;;;;;;;15.57;5.97;;;17.50;99.90;;;;;;4960127;28;20130;-85
2023/08/23 05:43:00;;;;;;;6.90;6.03;;;17.50;99.90;;;;;;4947042;28;20126;-85
2023/08/23 05:45:26;;;;;;;10.20;6.43;;;17.40;99.90;;;;;;4942533;28;20042;-85
2023/08/23 05:47:56;;;;;;;15.43;6.60;;;17.40;99.90;;;;;;4947189;28;20043;-83
2023/08/23 05:50:22;;;;;;;11.07;7.03;;;17.40;99.90;;;;;;4945096;28;20480;-85
2023/08/23 05:52:48;;;;;;;13.30;7.65;;;17.50;99.90;;;;;;4947804;28;20046;-85
2023/08/23 05:55:14;;;;;;;10.45;7.63;;;17.60;99.90;;;;;;4948085;28;20479;-85
2023/08/23 05:57:40;;;;;;;9.75;8.63;;;17.60;99.90;;;;;;4944677;28;20068;-85
2023/08/23 06:00:06;;;;;;;11.15;7.95;;;17.70;99.90;;;;;;4944345;28;20019;-85
2023/08/23 06:02:34;;;;;;;14.13;7.70;;;17.70;99.90;;;;;;4943646;28;20058;-85
2023/08/23 06:05:00;;;;;;;11.05;7.80;;;17.70;99.90;;;;;;4958521;28;20027;-85
2023/08/23 06:07:27;;;;;;;14.13;8.02;;;17.80;99.90;;;;;;4947738;28;20389;-85
2023/08/23 06:09:53;;;;;;;10.48;7.93;;;17.90;99.90;;;;;;4945414;28;20031;-84
2023/08/23 06:12:24;;;;;;;13.32;7.00;;;17.90;99.90;;;;;;4945038;28;20027;-85
2023/08/23 06:14:49;;;;;;;8.40;7.50;;;17.90;99.90;;;;;;4946191;28;20037;-85
2023/08/23 06:17:16;;;;;;;9.10;8.23;;;18.00;99.90;;;;;;4946316;28;20027;-84
2023/08/23 06:19:42;;;;;;;14.68;8.40;;;18.10;99.90;;;;;;4946082;28;20490;-84
2023/08/23 06:22:08;;;;;;;14.80;8.48;;;18.10;99.90;;;;;;4946546;28;20019;-85
2023/08/23 06:24:34;;;;;;;16.90;10.07;;;18.20;99.90;;;;;;4944620;28;20333;-85
2023/08/23 06:26:59;;;;;;;17.65;10.35;;;18.30;99.90;;;;;;4945733;28;20027;-85
2023/08/23 06:29:28;;;;;;;18.08;11.15;;;18.30;99.90;;;;;;4946945;28;20439;-84
2023/08/23 06:31:54;;;;;;;23.02;12.25;;;18.40;99.90;;;;;;4958724;28;20023;-83
2023/08/23 06:34:22;;;;;;;19.17;12.15;;;18.50;99.90;;;;;;4967719;28;20094;-85
2023/08/23 06:36:48;;;;;;;21.80;12.68;;;18.40;99.90;;;;;;4948695;28;20023;-85
2023/08/23 06:39:13;;;;;;;19.02;12.60;;;18.50;99.90;;;;;;4944267;28;20687;-84
2023/08/23 06:41:39;;;;;;;16.70;13.07;;;18.60;99.90;;;;;;4947083;28;20080;-85
2023/08/23 06:44:07;;;;;;;19.92;12.93;;;18.70;99.90;;;;;;4936967;28;20035;-83
2023/08/23 06:46:32;;;;;;;21.60;13.48;;;18.70;99.90;;;;;;4945323;28;20042;-84
2023/08/23 06:48:58;;;;;;;19.65;12.10;;;18.70;99.90;;;;;;4945335;28;20035;-84
2023/08/23 06:51:27;;;;;;;23.63;12.70;;;18.70;99.90;;;;;;4945044;28;20030;-84
2023/08/23 06:53:53;;;;;;;27.20;13.18;;;18.70;99.90;;;;;;4952521;28;20474;-84
2023/08/23 06:56:18;;;;;;;18.63;13.43;;;18.80;99.90;;;;;;4936931;28;20432;-84
2023/08/23 06:58:44;;;;;;;26.52;14.35;;;18.80;99.90;;;;;;4945362;28;20027;-84
2023/08/23 07:01:14;;;;;;;26.42;14.13;;;18.80;99.90;;;;;;4945925;28;20019;-84
2023/08/23 07:03:44;;;;;;;21.83;14.02;;;18.90;99.90;;;;;;4943371;28;20035;-84
2023/08/23 07:06:16;;;;;;;36.00;14.65;;;19.00;99.90;;;;;;4943546;28;20019;-84
2023/08/23 07:08:44;;;;;;;16.08;13.07;;;19.00;99.90;;;;;;4944599;28;20051;-84
2023/08/23 07:11:10;;;;;;;20.13;12.88;;;19.10;99.90;;;;;;4957133;28;20371;-83
2023/08/23 07:13:38;;;;;;;19.10;13.18;;;19.10;99.90;;;;;;4944534;28;20031;-84
2023/08/23 07:16:04;;;;;;;21.75;12.65;;;19.20;99.90;;;;;;4945295;28;20101;-83
2023/08/23 07:18:30;;;;;;;18.17;12.25;;;19.30;99.90;;;;;;4944593;28;20127;-85
2023/08/23 07:20:58;;;;;;;15.68;11.23;;;19.30;99.90;;;;;;4944882;28;20392;-84
2023/08/23 07:23:24;;;;;;;16.23;11.60;;;19.30;99.90;;;;;;4947302;28;20020;-84
2023/08/23 07:25:50;;;;;;;15.65;11.10;;;19.40;99.90;;;;;;4945624;28;20054;-85
2023/08/23 07:28:15;;;;;;;17.73;11.30;;;19.60;99.90;;;;;;4943948;28;20523;-84
2023/08/23 07:30:56;;;;;;;17.25;10.70;;;19.70;99.90;;;;;;4944403;28;20043;-83
2023/08/23 07:33:26;;;;;;;15.93;10.63;;;19.80;99.90;;;;;;4945568;28;20122;-84
2023/08/23 07:36:00;;;;;;;22.85;10.77;;;19.90;99.90;;;;;;4943296;28;20042;-83
2023/08/23 07:38:26;;;;;;;17.27;10.93;;;20.00;99.90;;;;;;4947063;28;20057;-84
2023/08/23 07:41:02;;;;;;;12.90;9.30;;;20.10;99.90;;;;;;4942388;28;20036;-83
2023/08/23 07:43:27;;;;;;;14.55;8.93;;;20.30;99.90;;;;;;4946460;28;20031;-81
2023/08/23 07:45:54;;;;;;;10.65;9.32;;;20.30;99.80;;;;;;4944703;28;20034;-82
2023/08/23 07:48:21;;;;;;;15.00;8.70;;;20.50;99.80;;;;;;4946229;28;20510;-81
2023/08/23 07:50:51;;;;;;;11.70;8.88;;;20.60;99.60;;;;;;4944649;28;20038;-81
2023/08/23 07:53:17;;;;;;;12.27;8.80;;;20.60;99.60;;;;;;4944245;28;20015;-81
2023/08/23 07:55:43;;;;;;;17.45;9.15;;;20.70;99.00;;;;;;4946464;28;20105;-81
2023/08/23 07:58:09;;;;;;;13.73;8.80;;;20.70;99.00;;;;;;4943911;28;20503;-80
2023/08/23 08:00:35;;;;;;;15.23;8.52;;;20.80;98.60;;;;;;4954863;28;20027;-80
2023/08/23 08:03:03;;;;;;;11.48;7.55;;;20.80;98.10;;;;;;4942986;28;20050;-81
2023/08/23 08:05:29;;;;;;;9.27;6.20;;;21.00;98.10;;;;;;4946201;28;20115;-81
2023/08/23 08:07:55;;;;;;;11.35;6.50;;;21.10;96.70;;;;;;4945337;28;20503;-82
2023/08/23 08:10:21;;;;;;;12.70;6.13;;;21.20;97.00;;;;;;4954599;28;20114;-81
2023/08/23 08:12:47;;;;;;;5.82;3.72;;;21.20;95.80;;;;;;4946321;28;20051;-82
2023/08/23 08:15:13;;;;;;;11.60;5.13;;;21.30;94.40;;;;;;4943675;28;20027;-83
2023/08/23 08:17:39;;;;;;;5.22;3.75;;;21.40;95.30;;;;;;4959196;28;20068;-82
2023/08/23 08:20:08;;;;;;;5.65;4.40;;;21.60;93.90;;;;;;4942692;28;20486;-81
2023/08/23 08:22:37;;;;;;;8.70;4.63;;;21.80;93.90;;;;;;4944822;28;20035;-83
2023/08/23 08:25:03;;;;;;;5.22;3.67;;;21.90;93.60;;;;;;4944373;28;20142;-82
2023/08/23 08:27:28;;;;;;;6.03;4.25;;;22.10;92.40;;;;;;4944981;28;20090;-82
2023/08/23 08:29:54;;;;;;;4.90;4.47;;;22.10;92.50;;;;;;4944195;28;20383;-82
2023/08/23 08:32:20;;;;;;;5.25;4.72;;;22.20;92.50;;;;;;4947042;28;20039;-82
2023/08/23 08:34:48;;;;;;;6.60;4.43;;;22.40;92.60;;;;;;4944540;28;20379;-85
2023/08/23 08:37:18;;;;;;;5.68;4.15;;;22.40;92.30;;;;;;4950330;28;20147;-85
2023/08/23 08:39:46;;;;;;;4.57;4.05;;;22.50;92.40;;;;;;4953818;28;20069;-83
2023/08/23 08:42:11;;;;;;;7.65;3.83;;;22.50;92.50;;;;;;4963608;28;20040;-84
2023/08/23 08:44:38;;;;;;;10.50;3.65;;;22.70;91.70;;;;;;4945607;28;20036;-85
2023/08/23 08:47:04;;;;;;;4.43;3.00;;;22.90;90.90;;;;;;4947384;28;20063;-85
2023/08/23 08:49:29;;;;;;;3.75;3.05;;;23.00;90.60;;;;;;4948352;28;20126;-85
2023/08/23 08:51:59;;;;;;;3.10;2.53;;;23.10;90.00;;;;;;4946988;28;20027;-85
2023/08/23 08:54:26;;;;;;;3.80;2.65;;;23.00;90.00;;;;;;4954987;28;20387;-86
2023/08/23 08:56:52;;;;;;;2.92;2.58;;;23.30;89.50;;;;;;4947989;28;20035;-86
2023/08/23 08:59:19;;;;;;;2.40;2.20;;;23.50;89.50;;;;;;4948552;28;20038;-86
2023/08/23 09:01:45;;;;;;;4.93;2.90;;;23.80;89.30;;;;;;4947696;28;20085;-86
2023/08/23 09:04:11;;;;;;;4.68;2.53;;;24.30;86.60;;;;;;4946857;28;20027;-85
2023/08/23 09:06:38;;;;;;;5.03;2.70;;;24.70;84.50;;;;;;4947265;28;20027;-85
2023/08/23 09:09:04;;;;;;;4.32;2.92;;;24.70;85.00;;;;;;4946689;28;20046;-85
2023/08/23 09:11:30;;;;;;;8.32;2.80;;;25.10;85.30;;;;;;4947105;28;20027;-85
2023/08/23 09:13:56;;;;;;;3.83;3.10;;;25.30;82.90;;;;;;4946502;28;20027;-87
2023/08/23 09:16:25;;;;;;;4.82;1.88;;;25.60;83.70;;;;;;4948103;28;20038;-85
2023/08/23 09:18:51;;;;;;;1.77;1.60;;;25.80;79.70;;;;;;4948372;28;20031;-87
2023/08/23 09:21:24;;;;;;;2.75;1.63;;;25.90;77.70;;;;;;4947360;28;20380;-85
2023/08/23 09:23:50;;;;;;;3.35;1.92;;;26.20;76.20;;;;;;4947444;28;20034;-86
2023/08/23 09:26:16;;;;;;;5.45;2.33;;;26.30;77.50;;;;;;4968969;28;20015;-86
2023/08/23 09:28:41;;;;;;;3.60;2.25;;;26.60;77.50;;;;;;4970068;28;20039;-83
2023/08/23 09:31:14;;;;;;;2.40;2.20;;;26.60;75.30;;;;;;4962089;28;20035;-86
2023/08/23 09:33:43;;;;;;;4.80;2.45;;;26.20;76.00;;;;;;4948741;28;20039;-87
2023/08/23 09:36:08;;;;;;;2.75;2.17;;;26.50;76.30;;;;;;4948349;28;20368;-87
2023/08/23 09:38:34;;;;;;;4.40;2.10;;;26.70;75.40;;;;;;4950682;28;20030;-86
2023/08/23 09:41:02;;;;;;;2.47;2.25;;;27.40;74.00;;;;;;4942844;28;20034;-86
2023/08/23 09:43:33;;;;;;;2.10;1.95;;;27.40;71.60;;;;;;4959680;28;20086;-86
2023/08/23 09:46:02;;;;;;;3.03;2.63;;;27.40;71.80;;;;;;4944542;28;20495;-86
2023/08/23 09:48:33;;;;;;;3.03;2.35;;;26.60;74.00;;;;;;4950935;28;20043;-87
2023/08/23 09:51:02;;;;;;;2.43;2.23;;;26.80;76.50;;;;;;4960850;28;20031;-87
2023/08/23 09:53:33;;;;;;;3.15;2.85;;;27.40;76.40;;;;;;4947723;28;20032;-87
2023/08/23 09:56:02;;;;;;;3.70;2.90;;;28.10;74.40;;;;;;4961782;28;20038;-87
2023/08/23 09:58:28;;;;;;;4.30;3.20;;;28.00;69.70;;;;;;4945953;28;20082;-87
2023/08/23 10:00:55;;;;;;;4.03;2.65;;;27.70;71.50;;;;;;4965385;28;20023;-87
2023/08/23 10:03:22;;;;;;;4.03;2.70;;;27.80;73.10;;;;;;4949231;28;20130;-86
2023/08/23 10:05:50;;;;;;;5.53;3.08;;;28.10;70.30;;;;;;4942322;28;20023;-88
2023/08/23 10:08:18;;;;;;;3.30;2.20;;;28.10;69.30;;;;;;4958212;28;20097;-87
2023/08/23 10:10:45;;;;;;;3.45;2.72;;;28.30;71.10;;;;;;4949786;28;20479;-87
2023/08/23 10:13:11;;;;;;;6.15;2.95;;;28.70;70.00;;;;;;4947472;28;20626;-87
2023/08/23 10:15:40;;;;;;;5.93;2.97;;;29.00;67.20;;;;;;4950140;28;20023;-88
2023/08/23 10:18:09;;;;;;;6.90;3.03;;;29.20;67.50;;;;;;4952170;28;20039;-88
2023/08/23 10:20:37;;;;;;;4.10;3.28;;;29.40;67.80;;;;;;4963741;28;20012;-89
2023/08/23 10:23:13;;;;;;;2.92;2.67;;;29.30;67.20;;;;;;4949700;28;20078;-85
2023/08/23 10:25:44;;;;;;;4.05;2.80;;;29.30;65.20;;;;;;4941013;28;20138;-85
2023/08/23 10:28:12;;;;;;;5.53;3.20;;;29.00;66.70;;;;;;4949685;28;20039;-86
2023/08/23 10:30:41;;;;;;;6.88;2.95;;;29.00;67.20;;;;;;4948168;28;20023;-86
2023/08/23 10:33:08;;;;;;;4.55;3.03;;;29.20;66.60;;;;;;4946598;28;20030;-86
2023/08/23 10:35:35;;;;;;;6.43;3.55;;;29.40;65.30;;;;;;4947488;28;20062;-84
2023/08/23 10:38:05;;;;;;;8.10;3.20;;;28.50;67.00;;;;;;4952201;28;20031;-88
2023/08/23 10:40:32;;;;;;;5.65;3.38;;;28.30;67.90;;;;;;4982621;28;20039;-85
2023/08/23 10:43:01;;;;;;;4.18;3.40;;;28.10;67.50;;;;;;4947390;28;20028;-84
2023/08/23 10:45:27;;;;;;;4.47;3.22;;;28.50;68.80;;;;;;4947917;28;20027;-86
2023/08/23 10:47:55;;;;;;;7.78;3.58;;;28.70;67.30;;;;;;4950556;28;20023;-88
2023/08/23 10:50:22;;;;;;;9.95;5.50;;;28.80;66.90;;;;;;4947452;28;20453;-88
2023/08/23 10:52:50;;;;;;;5.32;2.90;;;28.90;66.90;;;;;;4950201;28;20035;-89
2023/08/23 10:55:17;;;;;;;7.18;3.70;;;28.90;68.60;;;;;;4949369;28;20027;-91
2023/08/23 10:57:42;;;;;;;4.13;3.00;;;28.70;68.60;;;;;;4952933;28;20078;-88
2023/08/23 11:00:08;;;;;;;7.38;3.30;;;28.90;69.00;;;;;;4951668;28;20027;-87
2023/08/23 11:02:34;;;;;;;3.92;3.38;;;28.90;67.80;;;;;;4952637;28;20050;-87
2023/08/23 11:05:00;;;;;;;6.35;3.20;;;28.80;68.60;;;;;;4952472;28;20475;-88
2023/08/23 11:07:29;;;;;;;4.50;3.17;;;29.00;66.90;;;;;;4950315;28;20059;-88
2023/08/23 11:09:54;;;;;;;5.93;3.05;;;29.10;65.70;;;;;;4949762;28;20114;-87
2023/08/23 11:12:20;;;;;;;5.13;3.42;;;29.30;69.40;;;;;;4946297;28;20122;-86
2023/08/23 11:14:46;;;;;;;5.95;3.20;;;29.30;67.10;;;;;;4932290;29;20485;-88
2023/08/23 11:17:12;;;;;;;5.40;2.97;;;29.30;67.80;;;;;;4930376;29;20034;-85
2023/08/23 11:19:41;;;;;;;3.53;2.53;;;29.10;68.90;;;;;;4929022;29;20034;-83
2023/08/23 11:22:07;;;;;;;5.13;3.95;;;29.40;67.40;;;;;;4928111;29;20027;-87
2023/08/23 11:24:38;;;;;;;6.05;3.55;;;29.30;65.70;;;;;;4928055;29;20115;-86
2023/08/23 11:27:13;;;;;;;4.18;2.90;;;29.10;66.60;;;;;;4950007;29;20020;-89
2023/08/23 11:29:42;;;;;;;5.72;3.15;;;29.20;67.00;;;;;;4943215;28;20137;-89
2023/08/23 11:32:08;;;;;;;6.85;2.92;;;29.00;64.70;;;;;;4930907;29;20028;-86
2023/08/23 11:34:36;;;;;;;3.90;3.15;;;28.80;66.50;;;;;;4932901;29;20083;-88
2023/08/23 11:37:07;;;;;;;5.43;3.15;;;28.90;67.60;;;;;;4928913;29;20031;-93
2023/08/23 11:39:36;;;;;;;28.52;14.13;;;28.90;65.90;;;;;;4923260;29;20055;-92
2023/08/23 11:42:02;;;;;;;13.35;6.40;;;28.50;65.30;;;;;;4946881;28;20033;-85
2023/08/23 11:44:28;;;;;;;5.65;3.40;;;27.90;69.60;;;;;;4931982;29;20107;-91
2023/08/23 11:46:56;;;;;;;5.13;3.40;;;27.90;69.00;;;;;;4927404;29;20161;-91
2023/08/23 11:49:23;;;;;;;6.32;3.20;;;28.00;68.80;;;;;;4932773;29;20051;-85
2023/08/23 11:51:50;;;;;;;4.30;3.53;;;28.10;68.60;;;;;;4926156;29;20031;-86
2023/08/23 11:54:17;;;;;;;6.43;3.75;;;28.10;69.10;;;;;;4945972;28;20074;-89
2023/08/23 11:56:44;;;;;;;3.53;2.33;;;28.30;69.20;;;;;;4935036;29;20027;-91
2023/08/23 11:59:11;;;;;;;5.88;2.80;;;28.40;68.30;;;;;;4946524;28;20550;-88
2023/08/23 12:01:38;;;;;;;4.82;3.20;;;28.60;70.40;;;;;;4931597;29;20023;-90
2023/08/23 12:04:11;;;;;;;4.15;3.35;;;28.70;67.90;;;;;;4929952;29;20020;-90
2023/08/23 12:06:38;;;;;;;4.38;2.55;;;28.50;65.40;;;;;;4930909;29;20059;-90
2023/08/23 12:09:13;;;;;;;4.50;3.42;;;28.50;65.80;;;;;;4934549;29;20024;-94
2023/08/23 12:11:41;;;;;;;5.72;3.17;;;28.50;64.20;;;;;;4932062;29;20023;-93
2023/08/23 12:14:06;;;;;;;25.40;5.20;;;28.60;64.70;;;;;;4934956;29;20137;-88
2023/08/23 12:16:34;;;;;;;4.45;3.20;;;28.60;65.10;;;;;;4931689;29;20059;-92
2023/08/23 12:19:00;;;;;;;5.25;3.08;;;28.90;64.50;;;;;;4932444;29;20024;-92
2023/08/23 12:21:27;;;;;;;5.97;3.35;;;29.20;64.70;;;;;;4933428;29;20046;-91
2023/08/23 12:23:53;;;;;;;91.50;41.22;;;29.30;62.50;;;;;;4931571;29;20028;-92
2023/08/23 12:26:24;;;;;;;44.58;17.77;;;29.40;62.70;;;;;;4928159;29;20492;-88
2023/08/23 12:28:52;;;;;;;3.95;2.92;;;29.30;62.10;;;;;;4945967;28;20571;-85
2023/08/23 12:31:19;;;;;;;5.22;3.25;;;28.90;62.20;;;;;;4929212;29;20039;-86
2023/08/23 12:33:45;;;;;;;5.10;3.25;;;29.00;61.50;;;;;;4930349;29;20042;-86
2023/08/23 12:36:12;;;;;;;5.00;2.95;;;29.20;63.60;;;;;;4949854;29;20318;-86
2023/08/23 12:38:38;;;;;;;4.43;2.60;;;29.40;61.80;;;;;;4937353;29;20028;-91
2023/08/23 12:41:04;;;;;;;3.60;3.15;;;29.60;62.80;;;;;;4946515;28;20082;-90
2023/08/23 12:43:32;;;;;;;5.25;2.95;;;30.10;61.60;;;;;;4930343;29;20047;-90